createdAt,value
2022-08-12T00:02:04.309Z,11.00
2022-08-12T00:07:14.561Z,15.50
2022-08-12T00:12:35.735Z,15.10
2022-08-12T00:17:56.386Z,14.10
2022-08-12T00:23:17.312Z,10.20
2022-08-12T00:28:38.033Z,10.30
2022-08-12T00:33:58.804Z,8.70
2022-08-12T00:39:21.354Z,8.90
2022-08-12T00:44:23.708Z,8.40
2022-08-12T00:49:28.968Z,8.00
2022-08-12T00:54:32.211Z,8.80
2022-08-12T00:59:35.494Z,9.40
2022-08-12T01:04:57.747Z,8.90
2022-08-12T01:10:18.779Z,8.70
2022-08-12T01:15:31.718Z,9.50
2022-08-12T01:20:40.251Z,9.40
2022-08-12T01:25:56.039Z,10.40
2022-08-12T01:31:01.423Z,8.90
2022-08-12T01:36:08.432Z,9.40
2022-08-12T01:41:11.709Z,9.10
2022-08-12T01:46:33.584Z,9.60
2022-08-12T01:52:19.934Z,9.90
2022-08-12T01:57:11.653Z,10.50
2022-08-12T02:02:19.363Z,10.20
2022-08-12T02:07:50.223Z,10.50
2022-08-12T02:13:00.805Z,10.40
2022-08-12T02:18:08.523Z,10.60
2022-08-12T02:23:11.528Z,9.60
2022-08-12T02:28:13.615Z,10.00
2022-08-12T02:33:17.160Z,10.10
2022-08-12T02:38:21.900Z,9.30
2022-08-12T02:43:43.192Z,10.90
2022-08-12T02:48:46.224Z,12.20
2022-08-12T02:54:05.523Z,10.10
2022-08-12T02:59:10.747Z,9.50
2022-08-12T03:04:20.478Z,10.70
2022-08-12T03:09:24.970Z,10.10
2022-08-12T03:14:33.534Z,12.50
2022-08-12T03:19:38.358Z,11.30
2022-08-12T03:25:05.733Z,13.20
2022-08-12T03:30:07.929Z,14.20
2022-08-12T03:35:40.245Z,11.70
2022-08-12T03:41:14.146Z,12.40
2022-08-12T03:46:47.179Z,12.60
2022-08-12T03:52:07.876Z,12.00
2022-08-12T03:57:28.382Z,9.90
2022-08-12T04:02:31.139Z,9.50
2022-08-12T04:07:33.094Z,8.70
2022-08-12T04:12:53.900Z,10.20
2022-08-12T04:18:06.976Z,9.70
2022-08-12T04:23:12.511Z,8.00
2022-08-12T04:28:28.131Z,8.30
2022-08-12T04:33:32.342Z,8.20
2022-08-12T04:38:34.942Z,8.70
2022-08-12T04:43:55.318Z,8.80
2022-08-12T04:49:01.332Z,8.80
2022-08-12T04:54:04.947Z,8.90
2022-08-12T04:59:07.926Z,9.00
2022-08-12T05:04:10.824Z,9.40
2022-08-12T05:09:13.565Z,8.70
2022-08-12T05:14:15.865Z,9.30
2022-08-12T05:19:19.793Z,8.80
2022-08-12T05:24:24.517Z,9.90
2022-08-12T05:30:07.906Z,8.50
2022-08-12T05:34:48.504Z,8.20
2022-08-12T05:39:50.410Z,8.70
2022-08-12T05:44:52.331Z,8.10
2022-08-12T05:49:54.187Z,7.50
2022-08-12T05:54:57.791Z,8.40
2022-08-12T05:59:59.813Z,8.60
2022-08-12T06:05:02.786Z,7.70
2022-08-12T06:10:33.164Z,7.70
2022-08-12T06:15:39.957Z,9.10
2022-08-12T06:20:41.714Z,8.00
2022-08-12T06:25:43.721Z,8.10
2022-08-12T06:31:02.635Z,7.60
2022-08-12T06:36:11.609Z,7.40
2022-08-12T06:41:32.860Z,7.00
2022-08-12T06:51:38.914Z,6.70
2022-08-12T06:57:02.861Z,7.60
2022-08-12T07:02:02.424Z,6.80
2022-08-12T07:07:05.739Z,7.60
2022-08-12T07:12:19.367Z,6.50
2022-08-12T07:17:21.213Z,7.10
2022-08-12T07:22:23.456Z,6.60
2022-08-12T07:27:25.804Z,7.10
2022-08-12T07:32:29.538Z,7.10
2022-08-12T07:37:31.596Z,5.90
2022-08-12T07:48:22.586Z,6.20
2022-08-12T07:53:24.330Z,5.50
2022-08-12T07:58:26.325Z,5.10
2022-08-12T08:03:30.002Z,5.80
2022-08-12T08:08:31.687Z,7.40
2022-08-12T08:13:35.025Z,6.00
2022-08-12T08:18:37.278Z,4.80
2022-08-12T08:23:59.773Z,5.10
2022-08-12T08:29:07.972Z,5.00
2022-08-12T08:34:33.654Z,5.40
2022-08-12T08:39:34.965Z,5.50
2022-08-12T08:44:38.370Z,4.90
2022-08-12T08:49:40.319Z,5.40
2022-08-12T08:54:42.197Z,5.20
2022-08-12T08:59:44.511Z,4.60
2022-08-12T09:05:13.567Z,3.50
2022-08-12T09:10:31.243Z,2.60
2022-08-12T09:15:41.501Z,2.30
2022-08-12T09:20:43.690Z,2.60
2022-08-12T09:25:48.419Z,70.90
2022-08-12T09:30:50.983Z,28.10
2022-08-12T09:36:04.497Z,3.20
2022-08-12T09:42:32.942Z,2.20
2022-08-12T09:46:28.941Z,2.20
2022-08-12T09:51:37.381Z,2.00
2022-08-12T09:57:02.177Z,1.70
2022-08-12T10:02:44.670Z,2.00
2022-08-12T10:07:25.105Z,1.60
2022-08-12T10:13:10.256Z,2.10
2022-08-12T10:18:08.043Z,1.80
2022-08-12T10:23:12.732Z,1.80
2022-08-12T10:28:33.095Z,1.90
2022-08-12T10:38:56.676Z,1.60
2022-08-12T10:43:58.390Z,1.80
2022-08-12T10:49:06.916Z,2.50
2022-08-12T10:54:27.096Z,1.70
2022-08-12T11:00:01.283Z,1.60
2022-08-12T11:05:17.589Z,1.60
2022-08-12T11:10:26.546Z,1.70
2022-08-12T11:16:02.704Z,1.70
2022-08-12T11:20:52.248Z,1.50
2022-08-12T11:25:57.884Z,2.00
2022-08-12T11:31:00.771Z,1.70
2022-08-12T11:36:14.806Z,2.20
2022-08-12T11:41:17.143Z,1.70
2022-08-12T11:46:30.562Z,1.90
2022-08-12T11:51:36.515Z,1.90
2022-08-12T11:56:42.899Z,1.70
2022-08-12T12:02:04.456Z,1.70
2022-08-12T12:07:11.465Z,1.70
2022-08-12T12:12:13.301Z,1.70
2022-08-12T12:17:15.022Z,1.70
2022-08-12T12:22:23.377Z,2.10
2022-08-12T12:28:05.882Z,1.80
2022-08-12T12:33:09.641Z,1.90
2022-08-12T12:38:20.116Z,1.70
2022-08-12T12:43:29.019Z,1.90
2022-08-12T12:48:45.046Z,1.40
2022-08-12T12:54:08.653Z,1.30
2022-08-12T12:59:56.435Z,1.40
2022-08-12T13:04:31.949Z,1.70
2022-08-12T13:09:37.134Z,1.70
2022-08-12T13:14:39.575Z,1.50
2022-08-12T13:19:48.334Z,2.40
2022-08-12T13:24:56.403Z,2.10
2022-08-12T13:30:03.709Z,2.00
2022-08-12T13:35:19.860Z,1.60
2022-08-12T13:40:31.118Z,1.80
2022-08-12T13:45:34.206Z,1.60
2022-08-12T13:50:40.038Z,1.70
2022-08-12T13:55:45.695Z,2.00
2022-08-12T14:00:51.335Z,1.80
2022-08-12T14:05:55.795Z,1.80
2022-08-12T14:10:58.004Z,1.20
2022-08-12T14:16:01.476Z,1.60
2022-08-12T14:21:06.117Z,1.40
2022-08-12T14:26:15.067Z,1.70
2022-08-12T14:31:21.951Z,2.00
2022-08-12T14:36:24.387Z,2.00
2022-08-12T14:41:36.475Z,1.80
2022-08-12T14:46:57.063Z,1.50
2022-08-12T14:52:43.273Z,1.70
2022-08-12T14:57:24.089Z,2.00
2022-08-12T15:02:28.695Z,1.80
2022-08-12T15:07:33.549Z,2.20
2022-08-12T15:12:50.984Z,1.60
2022-08-12T15:18:01.906Z,1.50
2022-08-12T15:23:05.453Z,1.50
2022-08-12T15:28:24.641Z,1.40
2022-08-12T15:33:45.987Z,1.90
2022-08-12T15:38:48.122Z,1.60
2022-08-12T15:44:17.026Z,1.80
2022-08-12T15:49:16.601Z,1.90
2022-08-12T15:54:34.057Z,2.00
2022-08-12T16:00:04.101Z,4.40
2022-08-12T16:05:00.216Z,3.40
2022-08-12T16:10:06.237Z,1.90
2022-08-12T16:15:10.917Z,2.10
2022-08-12T16:20:22.124Z,2.20
2022-08-12T16:26:02.870Z,2.20
2022-08-12T16:30:57.013Z,2.50
2022-08-12T16:35:58.785Z,2.70
2022-08-12T16:41:01.897Z,2.10
2022-08-12T16:46:32.740Z,2.90
2022-08-12T16:51:29.615Z,2.00
2022-08-12T16:56:39.288Z,3.00
2022-08-12T17:01:54.022Z,3.00
2022-08-12T17:06:56.044Z,2.80
2022-08-12T17:11:59.765Z,3.00
2022-08-12T17:17:04.423Z,2.90
2022-08-12T17:22:08.446Z,3.70
2022-08-12T17:27:16.529Z,3.60
2022-08-12T17:32:28.315Z,3.60
2022-08-12T17:37:34.149Z,4.10
2022-08-12T17:42:38.443Z,3.70
2022-08-12T17:47:42.276Z,4.00
2022-08-12T17:52:44.496Z,4.00
2022-08-12T17:57:55.489Z,3.90
2022-08-12T18:02:58.335Z,4.10
2022-08-12T18:08:00.776Z,4.20
2022-08-12T18:13:04.080Z,3.80
2022-08-12T18:18:06.078Z,5.70
2022-08-12T18:23:25.013Z,4.40
2022-08-12T18:28:30.679Z,5.20
2022-08-12T18:33:43.725Z,4.40
2022-08-12T18:38:52.779Z,4.10
2022-08-12T18:44:03.044Z,3.80
2022-08-12T18:49:17.182Z,5.60
2022-08-12T18:54:22.586Z,6.80
2022-08-12T19:00:02.629Z,7.50
2022-08-12T19:04:47.805Z,6.80
2022-08-12T19:09:58.679Z,4.90
2022-08-12T19:15:05.279Z,4.50
2022-08-12T19:20:07.303Z,5.00
2022-08-12T19:26:01.098Z,5.90
2022-08-12T19:31:08.241Z,5.70
2022-08-12T19:36:24.359Z,6.60
2022-08-12T19:41:42.763Z,7.50
2022-08-12T19:46:51.922Z,7.80
2022-08-12T19:51:55.693Z,7.40
2022-08-12T19:56:58.734Z,7.30
2022-08-12T20:02:04.925Z,8.50
2022-08-12T20:07:23.719Z,8.80
2022-08-12T20:12:34.548Z,8.90
2022-08-12T20:17:50.700Z,8.80
2022-08-12T20:22:53.846Z,9.80
2022-08-12T20:28:05.259Z,9.50
2022-08-12T20:33:17.347Z,9.60
2022-08-12T20:38:26.344Z,9.80
2022-08-12T20:43:31.957Z,13.90
2022-08-12T20:48:35.526Z,14.50
2022-08-12T20:53:57.646Z,12.70
2022-08-12T20:59:02.397Z,11.70
2022-08-12T21:04:23.829Z,11.70
2022-08-12T21:09:27.511Z,11.90
2022-08-12T21:14:39.356Z,12.60
2022-08-12T21:19:55.409Z,11.50
2022-08-12T21:25:00.823Z,11.50
2022-08-12T21:30:18.551Z,10.30
2022-08-12T21:35:28.081Z,10.30
2022-08-12T21:40:37.538Z,10.80
2022-08-12T21:46:00.636Z,11.40
2022-08-12T21:51:03.420Z,10.80
2022-08-12T21:56:34.898Z,12.10
2022-08-12T22:01:47.619Z,12.00
2022-08-12T22:06:53.811Z,12.00
2022-08-12T22:11:59.931Z,11.60
2022-08-12T22:17:05.281Z,12.90
2022-08-12T22:22:08.354Z,14.90
2022-08-12T22:27:31.899Z,13.00
2022-08-12T22:32:33.657Z,12.80
2022-08-12T22:37:35.739Z,13.20
2022-08-12T22:42:59.689Z,12.70
2022-08-12T22:48:07.726Z,14.00
2022-08-12T22:53:16.592Z,12.80
2022-08-12T22:58:19.266Z,13.80
2022-08-12T23:03:48.961Z,15.00
2022-08-12T23:08:53.234Z,18.70
2022-08-12T23:14:03.570Z,14.50
2022-08-12T23:19:17.966Z,15.10
2022-08-12T23:24:26.075Z,13.70
2022-08-12T23:29:42.624Z,13.40
2022-08-12T23:34:47.913Z,13.00
2022-08-12T23:40:13.739Z,13.50
2022-08-12T23:45:20.659Z,13.40
2022-08-12T23:50:35.073Z,13.40
2022-08-12T23:55:40.956Z,14.30
